Time;durP1;ratioP1;P1;durP2;ratioP2;P2;SDS_P1;SDS_P2;PMS_P1;PMS_P2;Temp;Humidity;BMP_temperature;BMP_pressure;BME280_temperature;BME280_humidity;BME280_pressure;Samples;Min_cycle;Max_cycle;Signal;HPM_P1;HPM_P2
2023/01/27 00:00:14;;;;;;;19.02;11.15;;;;;;;;;;5087831;28;20403;-69
2023/01/27 00:02:59;;;;;;;21.33;12.60;;;;;;;;;;5090010;28;20040;-68
2023/01/27 00:05:44;;;;;;;22.73;13.20;;;;;;;;;;5085217;28;20024;-69
2023/01/27 00:08:30;;;;;;;21.08;10.90;;;;;;;;;;5081034;28;20023;-69
2023/01/27 00:14:19;;;;;;;19.27;10.43;;;;;;;;;;5083944;28;20505;-69
2023/01/27 00:17:04;;;;;;;20.95;11.65;;;;;;;;;;5073971;28;20059;-76
2023/01/27 00:19:49;;;;;;;23.50;13.30;;;;;;;;;;5078475;28;20028;-69
2023/01/27 00:25:39;;;;;;;24.20;13.20;;;;;;;;;;5069199;28;20056;-69
2023/01/27 00:28:24;;;;;;;22.05;11.45;;;;;;;;;;5087276;28;20024;-68
2023/01/27 00:34:14;;;;;;;21.02;11.63;;;;;;;;;;5072734;28;20024;-69
2023/01/27 00:36:59;;;;;;;21.35;11.20;;;;;;;;;;5089424;28;20411;-70
2023/01/27 00:39:44;;;;;;;19.33;10.85;;;;;;;;;;5087271;28;20139;-69
2023/01/27 00:42:29;;;;;;;22.17;9.63;;;;;;;;;;5082195;28;20075;-69
2023/01/27 00:48:18;;;;;;;16.23;8.40;;;;;;;;;;5085689;28;20040;-69
2023/01/27 00:51:04;;;;;;;17.63;9.35;;;;;;;;;;5084555;28;20024;-68
2023/01/27 00:53:49;;;;;;;16.65;9.25;;;;;;;;;;5087098;28;20081;-71
2023/01/27 00:56:34;;;;;;;18.95;9.75;;;;;;;;;;5074103;28;20013;-68
2023/01/27 00:59:21;;;;;;;16.40;9.23;;;;;;;;;;5084674;28;20299;-68
2023/01/27 01:02:06;;;;;;;18.30;10.52;;;;;;;;;;5086104;28;20035;-70
2023/01/27 01:04:51;;;;;;;15.63;9.48;;;;;;;;;;5082055;28;20024;-68
2023/01/27 01:07:36;;;;;;;19.88;11.18;;;;;;;;;;5070319;28;20043;-69
2023/01/27 01:10:22;;;;;;;20.52;10.73;;;;;;;;;;5071972;28;20020;-78
2023/01/27 01:13:09;;;;;;;21.17;10.98;;;;;;;;;;5068608;28;20422;-68
2023/01/27 01:15:54;;;;;;;20.83;11.73;;;;;;;;;;5071346;28;20371;-69
2023/01/27 01:18:39;;;;;;;20.48;10.82;;;;;;;;;;5081154;28;20462;-69
2023/01/27 01:21:25;;;;;;;19.50;11.18;;;;;;;;;;5073202;28;20039;-69
2023/01/27 01:24:10;;;;;;;21.13;9.77;;;;;;;;;;5071903;28;20031;-69
2023/01/27 01:26:55;;;;;;;19.63;11.18;;;;;;;;;;5076632;28;20036;-69
2023/01/27 01:29:40;;;;;;;22.48;11.90;;;;;;;;;;5072538;28;20379;-69
2023/01/27 01:32:26;;;;;;;17.90;10.55;;;;;;;;;;5084157;28;20023;-69
2023/01/27 01:35:11;;;;;;;22.15;11.27;;;;;;;;;;5081798;28;20027;-69
2023/01/27 01:37:56;;;;;;;24.10;12.23;;;;;;;;;;5073392;28;20021;-69
2023/01/27 01:40:43;;;;;;;18.80;11.25;;;;;;;;;;5080962;28;20028;-71
2023/01/27 01:43:28;;;;;;;21.42;12.05;;;;;;;;;;5075324;28;20123;-69
2023/01/27 01:46:13;;;;;;;23.48;11.73;;;;;;;;;;5070932;28;20455;-68
2023/01/27 01:49:00;;;;;;;21.55;12.55;;;;;;;;;;5075402;28;20027;-69
2023/01/27 01:51:48;;;;;;;20.40;10.90;;;;;;;;;;5083645;28;20028;-70
2023/01/27 01:54:35;;;;;;;22.50;12.52;;;;;;;;;;5079794;28;20489;-72
2023/01/27 01:57:24;;;;;;;19.48;10.23;;;;;;;;;;5057340;28;20032;-69
2023/01/27 02:00:09;;;;;;;25.63;12.13;;;;;;;;;;5077248;28;20051;-71
2023/01/27 02:02:55;;;;;;;19.27;10.93;;;;;;;;;;5085390;28;20039;-70
2023/01/27 02:05:42;;;;;;;19.13;11.00;;;;;;;;;;5075369;28;20391;-68
2023/01/27 02:08:34;;;;;;;23.30;10.80;;;;;;;;;;5073925;28;20028;-70
2023/01/27 02:11:19;;;;;;;21.40;11.38;;;;;;;;;;5081064;28;20152;-70
2023/01/27 02:14:05;;;;;;;21.63;10.88;;;;;;;;;;5077738;28;20032;-72
2023/01/27 02:16:50;;;;;;;23.00;11.02;;;;;;;;;;5061366;28;20035;-71
2023/01/27 02:19:38;;;;;;;19.40;10.70;;;;;;;;;;5099868;27;20535;-72
2023/01/27 02:22:29;;;;;;;21.88;11.27;;;;;;;;;;5071874;28;20085;-69
2023/01/27 02:25:17;;;;;;;21.17;11.13;;;;;;;;;;5081314;28;20024;-68
2023/01/27 02:28:03;;;;;;;22.20;10.52;;;;;;;;;;5075217;28;20459;-69
2023/01/27 02:30:48;;;;;;;20.25;10.77;;;;;;;;;;5076445;28;20053;-71
2023/01/27 02:33:34;;;;;;;21.52;11.02;;;;;;;;;;5077864;28;20029;-71
2023/01/27 02:36:19;;;;;;;17.63;9.50;;;;;;;;;;5089051;28;20101;-69
2023/01/27 02:39:07;;;;;;;21.70;10.00;;;;;;;;;;5077518;28;20025;-68
2023/01/27 02:41:54;;;;;;;16.92;9.45;;;;;;;;;;5075804;28;20042;-71
2023/01/27 02:44:39;;;;;;;18.30;10.52;;;;;;;;;;5076822;28;20040;-69
2023/01/27 02:47:25;;;;;;;18.73;9.65;;;;;;;;;;5075455;28;20553;-71
2023/01/27 02:50:10;;;;;;;19.30;10.77;;;;;;;;;;5062681;28;20092;-71
2023/01/27 02:52:55;;;;;;;21.38;9.65;;;;;;;;;;5078099;28;20029;-71
2023/01/27 02:55:40;;;;;;;17.73;9.25;;;;;;;;;;5073733;28;20028;-70
2023/01/27 02:58:26;;;;;;;18.60;9.57;;;;;;;;;;5073132;28;20028;-70
2023/01/27 03:01:11;;;;;;;16.27;9.27;;;;;;;;;;5079042;28;20023;-67
2023/01/27 03:03:57;;;;;;;21.17;10.10;;;;;;;;;;5078658;28;20040;-69
2023/01/27 03:06:42;;;;;;;17.38;9.88;;;;;;;;;;5085393;28;20043;-70
2023/01/27 03:09:27;;;;;;;16.63;9.23;;;;;;;;;;5078349;28;20035;-69
2023/01/27 03:12:18;;;;;;;16.95;9.00;;;;;;;;;;5070886;28;20036;-70
2023/01/27 03:18:12;;;;;;;18.00;9.80;;;;;;;;;;5077863;28;20058;-71
2023/01/27 03:21:01;;;;;;;14.30;8.38;;;;;;;;;;5079686;28;20071;-71
2023/01/27 03:23:47;;;;;;;14.50;7.90;;;;;;;;;;5071847;28;20119;-69
2023/01/27 03:26:32;;;;;;;15.15;7.85;;;;;;;;;;5076796;28;20040;-70
2023/01/27 03:32:22;;;;;;;14.80;7.85;;;;;;;;;;5085238;28;20047;-70
2023/01/27 03:35:08;;;;;;;14.02;8.18;;;;;;;;;;5074873;28;20023;-71
2023/01/27 03:47:05;;;;;;;12.75;6.72;;;;;;;;;;5068975;28;20437;-73
2023/01/27 03:49:50;;;;;;;15.25;8.10;;;;;;;;;;5059496;28;20017;-70
2023/01/27 03:52:36;;;;;;;14.20;7.80;;;;;;;;;;5080652;28;20036;-70
2023/01/27 03:55:22;;;;;;;16.30;7.72;;;;;;;;;;5075800;28;20024;-72
2023/01/27 03:58:19;;;;;;;16.02;8.70;;;;;;;;;;5074960;28;20063;-69
2023/01/27 04:01:06;;;;;;;15.35;8.60;;;;;;;;;;5074460;28;20055;-68
2023/01/27 04:07:02;;;;;;;17.23;9.23;;;;;;;;;;5073417;28;20031;-70
2023/01/27 04:09:47;;;;;;;17.60;8.00;;;;;;;;;;5084808;28;20020;-70
2023/01/27 04:12:32;;;;;;;17.17;10.10;;;;;;;;;;5075921;28;20067;-70
2023/01/27 04:15:18;;;;;;;18.05;10.50;;;;;;;;;;5071689;28;20073;-70
2023/01/27 04:18:03;;;;;;;19.42;10.00;;;;;;;;;;5075902;28;20048;-69
2023/01/27 04:20:48;;;;;;;19.52;11.00;;;;;;;;;;5070501;28;20013;-71
2023/01/27 04:23:34;;;;;;;19.33;10.27;;;;;;;;;;5071034;28;20031;-70
2023/01/27 04:26:19;;;;;;;16.80;10.20;;;;;;;;;;5064503;28;20064;-69
2023/01/27 04:29:06;;;;;;;16.70;9.57;;;;;;;;;;5079137;28;20035;-69
2023/01/27 04:31:51;;;;;;;19.08;10.07;;;;;;;;;;5072849;28;20024;-71
2023/01/27 04:34:36;;;;;;;20.02;10.68;;;;;;;;;;5074246;28;20170;-79
2023/01/27 04:37:22;;;;;;;19.95;10.25;;;;;;;;;;5073016;28;20020;-72
2023/01/27 04:40:07;;;;;;;18.20;11.35;;;;;;;;;;5070092;28;20064;-72
2023/01/27 04:42:53;;;;;;;18.15;11.65;;;;;;;;;;5075672;28;20057;-70
2023/01/27 04:45:38;;;;;;;21.95;11.52;;;;;;;;;;5077901;28;20032;-71
2023/01/27 04:48:24;;;;;;;19.42;11.05;;;;;;;;;;5077986;28;20600;-69
2023/01/27 04:51:10;;;;;;;20.20;11.52;;;;;;;;;;5067703;28;20190;-69
2023/01/27 04:53:55;;;;;;;19.20;11.40;;;;;;;;;;5071703;28;20020;-79
2023/01/27 04:56:43;;;;;;;20.05;11.48;;;;;;;;;;5078321;28;20154;-77
2023/01/27 04:59:28;;;;;;;19.60;12.20;;;;;;;;;;5072252;28;20042;-79
2023/01/27 05:02:13;;;;;;;20.95;12.63;;;;;;;;;;5075730;28;20034;-79
2023/01/27 05:05:03;;;;;;;17.33;10.50;;;;;;;;;;5076610;28;20020;-80
2023/01/27 05:07:48;;;;;;;16.40;9.90;;;;;;;;;;5071800;28;20035;-79
2023/01/27 05:10:33;;;;;;;18.38;10.88;;;;;;;;;;5080007;28;20035;-68
2023/01/27 05:13:19;;;;;;;21.15;11.00;;;;;;;;;;5052097;28;20027;-77
2023/01/27 05:16:08;;;;;;;17.23;11.23;;;;;;;;;;5063845;28;20028;-76
2023/01/27 05:18:55;;;;;;;19.95;12.05;;;;;;;;;;5083261;28;20115;-76
2023/01/27 05:21:40;;;;;;;22.10;13.30;;;;;;;;;;5073277;28;20031;-77
2023/01/27 05:24:25;;;;;;;22.98;11.98;;;;;;;;;;5071913;28;20032;-76
2023/01/27 05:27:10;;;;;;;21.52;12.52;;;;;;;;;;5077674;28;20044;-76
2023/01/27 05:29:56;;;;;;;23.25;13.95;;;;;;;;;;5066728;28;20033;-69
2023/01/27 05:32:41;;;;;;;19.13;11.30;;;;;;;;;;5072423;28;20666;-69
2023/01/27 05:35:26;;;;;;;17.45;10.50;;;;;;;;;;5069472;28;20028;-69
2023/01/27 05:38:11;;;;;;;20.85;12.95;;;;;;;;;;5071896;28;20028;-71
2023/01/27 05:40:59;;;;;;;20.90;12.65;;;;;;;;;;5056375;28;20601;-70
2023/01/27 05:43:45;;;;;;;23.30;11.75;;;;;;;;;;5078635;28;20059;-68
2023/01/27 05:46:31;;;;;;;22.35;13.77;;;;;;;;;;5078331;28;20276;-78
2023/01/27 05:49:16;;;;;;;20.35;12.40;;;;;;;;;;5071215;28;20118;-72
2023/01/27 05:52:01;;;;;;;23.38;13.25;;;;;;;;;;5071240;28;20020;-78
2023/01/27 05:54:46;;;;;;;23.33;13.73;;;;;;;;;;5074589;28;20035;-76
2023/01/27 05:57:32;;;;;;;21.88;12.57;;;;;;;;;;5075502;28;20032;-77
2023/01/27 06:00:17;;;;;;;22.15;12.80;;;;;;;;;;5072353;28;20450;-75
2023/01/27 06:03:02;;;;;;;22.65;12.80;;;;;;;;;;5076980;28;21253;-77
2023/01/27 06:05:55;;;;;;;21.13;13.02;;;;;;;;;;5071383;28;20057;-69
2023/01/27 06:08:40;;;;;;;20.23;12.15;;;;;;;;;;5071497;28;20033;-70
2023/01/27 06:11:26;;;;;;;23.42;13.45;;;;;;;;;;5074553;28;20028;-69
2023/01/27 06:14:11;;;;;;;28.65;15.00;;;;;;;;;;5067708;28;20550;-70
2023/01/27 06:16:58;;;;;;;25.63;13.75;;;;;;;;;;5072781;28;20040;-70
2023/01/27 06:19:43;;;;;;;30.38;14.25;;;;;;;;;;5079514;28;20374;-69
2023/01/27 06:22:29;;;;;;;24.35;13.57;;;;;;;;;;5073700;28;20017;-68
2023/01/27 06:25:14;;;;;;;23.67;13.30;;;;;;;;;;5081545;28;20030;-70
2023/01/27 06:27:59;;;;;;;23.58;14.15;;;;;;;;;;5076201;28;20115;-69
2023/01/27 06:30:45;;;;;;;24.70;14.68;;;;;;;;;;5078769;28;20558;-68
2023/01/27 06:33:30;;;;;;;23.23;14.23;;;;;;;;;;5088635;27;20024;-68
2023/01/27 06:36:16;;;;;;;26.45;14.10;;;;;;;;;;5067995;28;20033;-69
2023/01/27 06:39:01;;;;;;;20.83;12.55;;;;;;;;;;5064314;28;20012;-72
2023/01/27 06:41:48;;;;;;;27.17;13.82;;;;;;;;;;5073798;28;20036;-76
2023/01/27 06:44:33;;;;;;;24.42;12.82;;;;;;;;;;5073253;28;20502;-78
2023/01/27 06:47:19;;;;;;;22.73;13.07;;;;;;;;;;5084166;28;20040;-70
2023/01/27 06:50:04;;;;;;;24.05;13.48;;;;;;;;;;5078391;28;20016;-71
2023/01/27 06:52:50;;;;;;;21.30;13.18;;;;;;;;;;5078534;28;20036;-70
2023/01/27 06:55:40;;;;;;;24.38;13.82;;;;;;;;;;5074069;28;20031;-72
2023/01/27 06:58:26;;;;;;;21.52;12.30;;;;;;;;;;5070471;28;20115;-72
2023/01/27 07:01:11;;;;;;;21.90;13.32;;;;;;;;;;5069030;28;20028;-70
2023/01/27 07:03:56;;;;;;;20.20;12.20;;;;;;;;;;5059087;28;20032;-76
2023/01/27 07:06:41;;;;;;;18.63;12.00;;;;;;;;;;5070927;28;20040;-76
2023/01/27 07:09:27;;;;;;;21.25;11.82;;;;;;;;;;5073927;28;20390;-79
2023/01/27 07:12:12;;;;;;;20.30;12.57;;;;;;;;;;5058940;28;20016;-77
2023/01/27 07:14:57;;;;;;;21.25;11.40;;;;;;;;;;5072362;28;20032;-77
2023/01/27 07:17:42;;;;;;;19.67;11.98;;;;;;;;;;5074797;28;20028;-75
2023/01/27 07:20:28;;;;;;;20.38;11.55;;;;;;;;;;5080058;28;20028;-70
2023/01/27 07:23:13;;;;;;;19.55;10.65;;;;;;;;;;5077672;28;20008;-72
2023/01/27 07:26:00;;;;;;;19.10;10.70;;;;;;;;;;5075939;28;20032;-72
2023/01/27 07:28:45;;;;;;;22.92;12.48;;;;;;;;;;5071821;28;20030;-71
2023/01/27 07:31:32;;;;;;;20.58;11.40;;;;;;;;;;5075038;28;20044;-74
2023/01/27 07:34:17;;;;;;;17.95;11.07;;;;;;;;;;5075857;28;20064;-74
2023/01/27 07:37:04;;;;;;;18.10;11.25;;;;;;;;;;5063781;28;20020;-77
2023/01/27 07:39:49;;;;;;;20.75;10.85;;;;;;;;;;5068341;28;20020;-67
2023/01/27 07:42:34;;;;;;;18.17;9.90;;;;;;;;;;5071448;28;20123;-69
2023/01/27 07:45:19;;;;;;;19.25;10.63;;;;;;;;;;5070524;28;20031;-69
2023/01/27 07:48:06;;;;;;;18.95;10.75;;;;;;;;;;5076488;28;20029;-74
2023/01/27 07:50:51;;;;;;;19.27;10.60;;;;;;;;;;5077906;28;20020;-69
2023/01/27 07:53:37;;;;;;;18.20;11.95;;;;;;;;;;5072273;28;20035;-69
2023/01/27 07:56:22;;;;;;;19.35;10.77;;;;;;;;;;5081486;28;20062;-70
2023/01/27 07:59:09;;;;;;;19.88;11.10;;;;;;;;;;5073544;28;20021;-69
2023/01/27 08:01:54;;;;;;;17.25;9.77;;;;;;;;;;5059862;28;20058;-70
2023/01/27 08:04:39;;;;;;;16.10;9.50;;;;;;;;;;5060598;28;20023;-71
2023/01/27 08:07:25;;;;;;;17.52;10.95;;;;;;;;;;5071145;28;20062;-70
2023/01/27 08:10:10;;;;;;;17.13;8.65;;;;;;;;;;5068864;28;20360;-69
2023/01/27 08:12:55;;;;;;;18.63;10.30;;;;;;;;;;5059750;28;20032;-69
2023/01/27 08:15:40;;;;;;;15.90;9.25;;;;;;;;;;5072927;28;20016;-76
2023/01/27 08:18:26;;;;;;;17.05;9.68;;;;;;;;;;5074046;28;20069;-67
2023/01/27 08:21:12;;;;;;;16.25;8.70;;;;;;;;;;5067324;28;20052;-68
2023/01/27 08:23:58;;;;;;;16.67;9.23;;;;;;;;;;5068927;28;20025;-66
2023/01/27 08:26:43;;;;;;;15.52;9.48;;;;;;;;;;5079855;28;20065;-69
2023/01/27 08:29:30;;;;;;;16.33;8.82;;;;;;;;;;5079991;28;20032;-70
2023/01/27 08:32:15;;;;;;;16.17;8.48;;;;;;;;;;5074209;28;20028;-73
2023/01/27 08:35:00;;;;;;;17.55;9.18;;;;;;;;;;5072769;28;20601;-71
2023/01/27 08:37:47;;;;;;;17.05;9.82;;;;;;;;;;5069810;28;20020;-81
2023/01/27 08:40:32;;;;;;;16.67;8.90;;;;;;;;;;5085431;27;20500;-79
2023/01/27 08:43:19;;;;;;;14.00;8.25;;;;;;;;;;5076668;28;20401;-78
2023/01/27 08:46:05;;;;;;;19.10;10.02;;;;;;;;;;5076480;28;20039;-78
2023/01/27 08:48:50;;;;;;;21.10;11.00;;;;;;;;;;5077582;28;20064;-79
2023/01/27 08:51:35;;;;;;;16.17;8.57;;;;;;;;;;5077398;28;20028;-71
2023/01/27 08:54:21;;;;;;;16.95;9.95;;;;;;;;;;5069593;28;20557;-73
2023/01/27 08:57:06;;;;;;;18.05;10.20;;;;;;;;;;5072862;28;20028;-70
2023/01/27 08:59:51;;;;;;;18.98;10.93;;;;;;;;;;5079913;28;20035;-71
2023/01/27 09:02:36;;;;;;;18.02;10.02;;;;;;;;;;5073901;28;20033;-72
2023/01/27 09:05:22;;;;;;;16.95;9.60;;;;;;;;;;5071988;28;20054;-71
2023/01/27 09:08:07;;;;;;;15.88;9.55;;;;;;;;;;5066841;28;20074;-72
2023/01/27 09:10:55;;;;;;;18.05;9.65;;;;;;;;;;5068426;28;20021;-72
2023/01/27 09:13:40;;;;;;;15.95;9.23;;;;;;;;;;5075087;28;20114;-79
2023/01/27 09:16:26;;;;;;;18.73;9.60;;;;;;;;;;5073025;28;20028;-83
2023/01/27 09:19:12;;;;;;;18.38;9.77;;;;;;;;;;5058158;28;20035;-83
2023/01/27 09:21:57;;;;;;;15.82;8.68;;;;;;;;;;5073404;28;20030;-82
2023/01/27 09:24:42;;;;;;;15.13;8.77;;;;;;;;;;5070143;28;20128;-77
2023/01/27 09:27:28;;;;;;;16.35;9.55;;;;;;;;;;5071386;28;20060;-71
2023/01/27 09:30:14;;;;;;;18.48;9.85;;;;;;;;;;5073183;28;20035;-71
2023/01/27 09:33:00;;;;;;;16.05;9.10;;;;;;;;;;5084110;28;20021;-72
2023/01/27 09:35:47;;;;;;;16.90;10.10;;;;;;;;;;5072709;28;20032;-70
2023/01/27 09:38:35;;;;;;;18.75;9.60;;;;;;;;;;5069660;28;20031;-70
2023/01/27 09:41:20;;;;;;;16.83;9.48;;;;;;;;;;5071715;28;20036;-70
2023/01/27 09:44:15;;;;;;;18.10;10.35;;;;;;;;;;5072585;28;20045;-70
2023/01/27 09:47:10;;;;;;;20.98;11.57;;;;;;;;;;5067382;28;20040;-73
2023/01/27 09:50:02;;;;;;;16.75;9.13;;;;;;;;;;5076952;28;20047;-75
2023/01/27 09:52:57;;;;;;;20.08;10.45;;;;;;;;;;5071076;28;20666;-77
2023/01/27 09:55:48;;;;;;;19.67;10.27;;;;;;;;;;5071267;28;20044;-76
2023/01/27 09:58:53;;;;;;;22.08;11.15;;;;;;;;;;5070158;28;20039;-74
2023/01/27 10:01:38;;;;;;;19.30;10.95;;;;;;;;;;5071810;28;20032;-75
2023/01/27 10:04:38;;;;;;;21.13;10.43;;;;;;;;;;5081634;28;20028;-74
2023/01/27 10:07:27;;;;;;;22.05;11.40;;;;;;;;;;5073565;28;20063;-68
2023/01/27 10:10:15;;;;;;;22.33;10.98;;;;;;;;;;5073473;28;20024;-69
2023/01/27 10:13:06;;;;;;;20.45;11.18;;;;;;;;;;5065479;28;20103;-70
2023/01/27 10:16:02;;;;;;;23.55;11.60;;;;;;;;;;5060005;28;20048;-71
2023/01/27 10:18:50;;;;;;;22.90;11.68;;;;;;;;;;5073783;28;20037;-70
2023/01/27 10:21:41;;;;;;;23.15;13.00;;;;;;;;;;5079405;28;20025;-73
2023/01/27 10:24:45;;;;;;;24.52;13.73;;;;;;;;;;5089063;28;20032;-70
2023/01/27 10:27:37;;;;;;;21.33;11.95;;;;;;;;;;5077249;28;20085;-80
2023/01/27 10:30:33;;;;;;;21.42;10.95;;;;;;;;;;5075109;28;20679;-80
2023/01/27 10:33:19;;;;;;;20.95;10.18;;;;;;;;;;5077929;28;20081;-79
2023/01/27 10:36:17;;;;;;;21.10;11.68;;;;;;;;;;5086120;28;20099;-79
2023/01/27 10:39:14;;;;;;;19.25;10.02;;;;;;;;;;5079818;28;20033;-76
2023/01/27 10:42:18;;;;;;;18.98;8.60;;;;;;;;;;5073928;28;20112;-68
2023/01/27 10:45:24;;;;;;;16.98;8.90;;;;;;;;;;5080936;28;20036;-68
2023/01/27 10:48:15;;;;;;;16.88;8.18;;;;;;;;;;5079565;28;20133;-68
2023/01/27 10:51:04;;;;;;;16.35;8.43;;;;;;;;;;5078299;28;20048;-68
2023/01/27 10:53:58;;;;;;;18.25;9.68;;;;;;;;;;5075944;28;20020;-69
2023/01/27 10:56:52;;;;;;;18.73;10.30;;;;;;;;;;5077036;28;20024;-73
2023/01/27 10:59:46;;;;;;;16.58;9.02;;;;;;;;;;5075592;28;20035;-69
2023/01/27 11:02:34;;;;;;;19.25;9.60;;;;;;;;;;5074137;28;20029;-71
2023/01/27 11:05:26;;;;;;;17.60;9.00;;;;;;;;;;5072718;28;20530;-70
2023/01/27 11:08:14;;;;;;;20.83;10.93;;;;;;;;;;5083918;28;20078;-69
2023/01/27 11:14:25;;;;;;;17.67;9.50;;;;;;;;;;5075296;28;20028;-69
2023/01/27 11:17:29;;;;;;;19.70;9.95;;;;;;;;;;5070700;28;20052;-69
2023/01/27 11:20:17;;;;;;;17.33;9.07;;;;;;;;;;5065925;28;20036;-69
2023/01/27 11:23:09;;;;;;;17.67;9.93;;;;;;;;;;5071558;28;20167;-69
2023/01/27 11:26:14;;;;;;;17.40;9.00;;;;;;;;;;5074670;28;20024;-69
2023/01/27 11:29:16;;;;;;;18.35;9.57;;;;;;;;;;5073586;28;20399;-69
2023/01/27 11:32:20;;;;;;;20.73;9.68;;;;;;;;;;5078822;28;20027;-69
2023/01/27 11:35:09;;;;;;;19.73;9.82;;;;;;;;;;5070188;28;20028;-72
2023/01/27 11:37:55;;;;;;;15.63;8.23;;;;;;;;;;5072973;28;20124;-69
2023/01/27 11:40:40;;;;;;;17.27;8.52;;;;;;;;;;5079581;28;20103;-71
2023/01/27 11:43:26;;;;;;;15.45;8.32;;;;;;;;;;5070148;28;20048;-70
2023/01/27 11:46:15;;;;;;;16.80;8.65;;;;;;;;;;5071416;28;20027;-74
2023/01/27 11:49:01;;;;;;;15.05;8.23;;;;;;;;;;5078876;28;20025;-68
2023/01/27 11:51:48;;;;;;;15.57;7.43;;;;;;;;;;5075811;28;20016;-70
2023/01/27 11:54:35;;;;;;;16.05;8.57;;;;;;;;;;5072515;28;20071;-71
2023/01/27 11:57:22;;;;;;;21.80;9.52;;;;;;;;;;5069739;28;20024;-78
2023/01/27 12:00:20;;;;;;;14.63;8.25;;;;;;;;;;5069419;28;20032;-74
2023/01/27 12:03:17;;;;;;;15.75;7.90;;;;;;;;;;5073993;28;20028;-73
2023/01/27 12:06:08;;;;;;;18.50;9.77;;;;;;;;;;5072917;28;20036;-72
2023/01/27 12:08:53;;;;;;;18.02;8.60;;;;;;;;;;5073290;28;20059;-71
2023/01/27 12:11:38;;;;;;;14.80;7.63;;;;;;;;;;5081696;28;20555;-72
2023/01/27 12:14:24;;;;;;;17.23;8.95;;;;;;;;;;5078062;28;20039;-71
2023/01/27 12:17:14;;;;;;;13.73;7.78;;;;;;;;;;5072859;28;20028;-78
2023/01/27 12:20:05;;;;;;;17.88;8.48;;;;;;;;;;5058373;28;20032;-82
2023/01/27 12:22:57;;;;;;;16.27;8.05;;;;;;;;;;5071963;28;20039;-77
2023/01/27 12:25:44;;;;;;;15.15;8.05;;;;;;;;;;5085104;28;20043;-83
2023/01/27 12:28:59;;;;;;;15.70;8.63;;;;;;;;;;5079880;28;20054;-81
2023/01/27 12:31:46;;;;;;;16.38;7.85;;;;;;;;;;5067026;28;20059;-70
2023/01/27 12:34:33;;;;;;;16.30;8.55;;;;;;;;;;5090306;27;20447;-69
2023/01/27 12:37:25;;;;;;;15.20;8.05;;;;;;;;;;5078333;28;20028;-74
2023/01/27 12:40:23;;;;;;;16.98;9.18;;;;;;;;;;5070346;28;20028;-75
2023/01/27 12:43:11;;;;;;;17.98;9.63;;;;;;;;;;5063602;28;20332;-74
2023/01/27 12:46:04;;;;;;;18.60;9.30;;;;;;;;;;5062614;28;20043;-74
2023/01/27 12:48:50;;;;;;;20.42;10.43;;;;;;;;;;5074835;28;20485;-73
2023/01/27 12:51:47;;;;;;;21.63;10.32;;;;;;;;;;5073487;28;20032;-77
2023/01/27 12:54:33;;;;;;;19.92;10.18;;;;;;;;;;5069217;28;20309;-77
2023/01/27 12:57:20;;;;;;;22.50;10.60;;;;;;;;;;5057180;28;20033;-77
2023/01/27 13:00:12;;;;;;;19.95;11.32;;;;;;;;;;5058260;28;20024;-76
2023/01/27 13:03:05;;;;;;;19.85;8.52;;;;;;;;;;5082181;28;20028;-77
2023/01/27 13:05:52;;;;;;;19.80;9.40;;;;;;;;;;5069819;28;20522;-78
2023/01/27 13:08:38;;;;;;;22.02;10.30;;;;;;;;;;5074177;28;20565;-70
2023/01/27 13:11:33;;;;;;;18.02;9.52;;;;;;;;;;5074453;28;20420;-69
2023/01/27 13:14:19;;;;;;;19.45;9.73;;;;;;;;;;5072337;28;20051;-78
2023/01/27 13:17:06;;;;;;;20.17;10.15;;;;;;;;;;5076778;28;20038;-78
2023/01/27 13:19:53;;;;;;;19.00;10.05;;;;;;;;;;5068272;28;20117;-77
2023/01/27 13:22:50;;;;;;;19.05;9.30;;;;;;;;;;5073881;28;20115;-81
2023/01/27 13:25:48;;;;;;;19.73;10.43;;;;;;;;;;5072834;28;20029;-77
2023/01/27 13:28:52;;;;;;;18.10;10.18;;;;;;;;;;5074009;28;20491;-69
2023/01/27 13:31:50;;;;;;;22.50;10.77;;;;;;;;;;5071815;28;20024;-68
2023/01/27 13:34:44;;;;;;;18.83;10.27;;;;;;;;;;5077052;28;20032;-71
2023/01/27 13:37:35;;;;;;;20.55;11.27;;;;;;;;;;5076037;28;20027;-69
2023/01/27 13:40:21;;;;;;;20.58;10.63;;;;;;;;;;5067599;28;20024;-71
2023/01/27 13:43:10;;;;;;;24.00;11.80;;;;;;;;;;5075390;28;20056;-68
2023/01/27 13:45:58;;;;;;;19.42;11.50;;;;;;;;;;5068965;28;20012;-70
2023/01/27 13:48:46;;;;;;;21.67;11.45;;;;;;;;;;5076120;28;20055;-70
2023/01/27 13:51:31;;;;;;;21.15;11.45;;;;;;;;;;5070710;28;20419;-69
2023/01/27 13:54:17;;;;;;;19.80;11.63;;;;;;;;;;5068653;28;20740;-69
2023/01/27 13:57:14;;;;;;;22.60;11.23;;;;;;;;;;5073155;28;20096;-68
2023/01/27 14:00:06;;;;;;;20.00;11.85;;;;;;;;;;5074521;28;20103;-69
2023/01/27 14:03:00;;;;;;;19.60;11.25;;;;;;;;;;5068014;28;20036;-70
2023/01/27 14:05:59;;;;;;;20.85;11.20;;;;;;;;;;5065735;28;20031;-70
2023/01/27 14:08:45;;;;;;;19.10;9.95;;;;;;;;;;5071024;28;20119;-70
2023/01/27 14:11:33;;;;;;;26.27;12.80;;;;;;;;;;5077403;28;20528;-70
2023/01/27 14:14:44;;;;;;;23.77;11.68;;;;;;;;;;5071548;28;20028;-72
2023/01/27 14:17:30;;;;;;;17.65;10.25;;;;;;;;;;5070695;28;20032;-70
2023/01/27 14:20:15;;;;;;;23.45;11.18;;;;;;;;;;5084466;28;20041;-69
2023/01/27 14:23:03;;;;;;;22.67;11.75;;;;;;;;;;5074402;28;20115;-68
2023/01/27 14:25:55;;;;;;;19.75;11.82;;;;;;;;;;5073666;28;20024;-71
2023/01/27 14:28:59;;;;;;;21.05;9.98;;;;;;;;;;5072741;28;20035;-73
2023/01/27 14:31:44;;;;;;;21.17;11.45;;;;;;;;;;5071737;28;20024;-72
2023/01/27 14:34:38;;;;;;;19.60;9.85;;;;;;;;;;5077970;28;20063;-76
2023/01/27 14:37:44;;;;;;;21.27;10.48;;;;;;;;;;5073229;28;20043;-74
2023/01/27 14:40:46;;;;;;;18.55;10.85;;;;;;;;;;5072900;28;20051;-78
2023/01/27 14:43:40;;;;;;;21.27;10.55;;;;;;;;;;5073222;28;20444;-78
2023/01/27 14:46:50;;;;;;;18.63;10.02;;;;;;;;;;5074042;28;20568;-78
2023/01/27 14:49:47;;;;;;;21.50;11.15;;;;;;;;;;5070372;28;20039;-79
2023/01/27 14:52:43;;;;;;;20.63;12.18;;;;;;;;;;5084016;28;20039;-83
2023/01/27 14:55:35;;;;;;;26.73;11.15;;;;;;;;;;5074352;28;20590;-82
2023/01/27 14:58:56;;;;;;;22.55;12.32;;;;;;;;;;5081260;28;20040;-82
2023/01/27 15:01:48;;;;;;;22.13;11.25;;;;;;;;;;5008538;28;20429;-71
2023/01/27 15:04:35;;;;;;;24.60;12.43;;;;;;;;;;5076868;28;20080;-73
2023/01/27 15:07:30;;;;;;;18.52;10.65;;;;;;;;;;5075406;28;20040;-72
2023/01/27 15:10:16;;;;;;;19.13;10.45;;;;;;;;;;5080691;28;20059;-71
2023/01/27 15:13:04;;;;;;;18.67;9.90;;;;;;;;;;5076004;28;20031;-71
2023/01/27 15:16:08;;;;;;;18.67;10.13;;;;;;;;;;5075125;28;20574;-74
2023/01/27 15:19:12;;;;;;;19.17;9.75;;;;;;;;;;5075263;28;20034;-68
2023/01/27 15:22:15;;;;;;;18.88;11.68;;;;;;;;;;5076378;28;20036;-74
2023/01/27 15:25:10;;;;;;;19.77;10.45;;;;;;;;;;5082294;28;20023;-71
2023/01/27 15:27:56;;;;;;;20.00;10.88;;;;;;;;;;5078844;28;20035;-72
2023/01/27 15:31:04;;;;;;;18.55;9.77;;;;;;;;;;5068430;28;20043;-71
2023/01/27 15:33:53;;;;;;;17.45;10.52;;;;;;;;;;5096701;27;20024;-72
2023/01/27 15:36:39;;;;;;;23.60;10.45;;;;;;;;;;5069582;28;20055;-66
2023/01/27 15:39:25;;;;;;;18.25;9.60;;;;;;;;;;5087529;28;20027;-76
2023/01/27 15:42:11;;;;;;;20.15;10.18;;;;;;;;;;5072912;28;20040;-74
2023/01/27 15:45:00;;;;;;;17.20;9.75;;;;;;;;;;5080969;28;20468;-72
2023/01/27 15:47:46;;;;;;;18.50;10.20;;;;;;;;;;5063740;28;20057;-74
2023/01/27 15:50:33;;;;;;;15.75;9.60;;;;;;;;;;5068805;28;20107;-75
2023/01/27 15:53:39;;;;;;;14.25;8.18;;;;;;;;;;5088405;28;20426;-75
2023/01/27 15:56:43;;;;;;;17.30;8.98;;;;;;;;;;5092867;28;20642;-72
2023/01/27 15:59:32;;;;;;;17.60;9.10;;;;;;;;;;5081207;28;20115;-72
2023/01/27 16:02:22;;;;;;;14.35;8.55;;;;;;;;;;5079711;28;20038;-70
2023/01/27 16:05:07;;;;;;;;;;;;;;;;;;5072548;28;20024;-72
2023/01/27 16:07:54;;;;;;;15.27;7.80;;;;;;;;;;5068047;28;20644;-73
2023/01/27 16:10:39;;;;;;;16.17;8.85;;;;;;;;;;5092772;28;20138;-70
2023/01/27 16:13:24;;;;;;;15.85;7.75;;;;;;;;;;5066099;28;20063;-76
2023/01/27 16:16:15;;;;;;;17.67;9.30;;;;;;;;;;5077551;28;20027;-71
2023/01/27 16:19:11;;;;;;;15.43;8.52;;;;;;;;;;5080194;28;20025;-69
2023/01/27 16:21:59;;;;;;;17.27;9.40;;;;;;;;;;5079065;28;20118;-68
2023/01/27 16:24:54;;;;;;;15.98;9.02;;;;;;;;;;5077480;28;20506;-69
2023/01/27 16:27:58;;;;;;;16.02;9.48;;;;;;;;;;5090782;28;20262;-69
2023/01/27 16:30:54;;;;;;;13.43;7.90;;;;;;;;;;5074562;28;20032;-76
2023/01/27 16:33:41;;;;;;;14.80;8.27;;;;;;;;;;5081760;28;20047;-69
2023/01/27 16:36:30;;;;;;;15.13;7.97;;;;;;;;;;5047631;28;20049;-76
2023/01/27 16:39:16;;;;;;;15.43;7.68;;;;;;;;;;5033053;28;20036;-76
2023/01/27 16:42:02;;;;;;;15.00;8.02;;;;;;;;;;5033339;28;20033;-77
2023/01/27 16:44:48;;;;;;;13.27;7.90;;;;;;;;;;5030965;28;20179;-76
2023/01/27 16:47:36;;;;;;;16.63;8.70;;;;;;;;;;5033447;28;20444;-76
2023/01/27 16:50:35;;;;;;;13.13;6.85;;;;;;;;;;5028022;28;20029;-76
2023/01/27 16:53:23;;;;;;;13.48;7.05;;;;;;;;;;5031680;28;20392;-76
2023/01/27 16:56:16;;;;;;;17.52;8.40;;;;;;;;;;5033261;28;20091;-77
2023/01/27 16:59:09;;;;;;;17.35;9.45;;;;;;;;;;5033157;28;20071;-74
2023/01/27 17:01:59;;;;;;;15.63;8.75;;;;;;;;;;5030556;28;20519;-77